Time;durP1;ratioP1;P1;durP2;ratioP2;P2;SDS_P1;SDS_P2;PMS_P1;PMS_P2;Temp;Humidity;BMP_temperature;BMP_pressure;BME280_temperature;BME280_humidity;BME280_pressure;Samples;Min_cycle;Max_cycle;Signal;HPM_P1;HPM_P2
2023/09/14 00:01:00;;;;;;;2.70;1.60;;;;;;;13.95;100.00;101040.31;4982566;28;20197;-69
2023/09/14 00:03:27;;;;;;;1.90;1.53;;;;;;;13.90;100.00;101026.06;4980280;28;20228;-69
2023/09/14 00:05:53;;;;;;;3.00;1.80;;;;;;;13.92;100.00;101039.38;4983741;28;20324;-69
2023/09/14 00:08:21;;;;;;;1.97;1.70;;;;;;;13.89;100.00;101040.25;4984139;28;20251;-70
2023/09/14 00:10:55;;;;;;;3.10;1.90;;;;;;;13.90;100.00;101033.16;4983972;28;20225;-70
2023/09/14 00:13:22;;;;;;;2.97;1.80;;;;;;;13.83;100.00;101025.97;4984373;28;20225;-68
2023/09/14 00:15:49;;;;;;;2.27;1.57;;;;;;;13.74;100.00;101029.44;4978319;28;20319;-69
2023/09/14 00:18:16;;;;;;;4.23;1.83;;;;;;;13.57;100.00;101031.00;4982902;28;20629;-69
2023/09/14 00:20:42;;;;;;;5.03;1.77;;;;;;;13.47;100.00;101024.69;4985857;28;20236;-69
2023/09/14 00:23:09;;;;;;;2.80;1.57;;;;;;;13.36;100.00;101023.69;4978989;28;20232;-69
2023/09/14 00:25:35;;;;;;;2.20;1.57;;;;;;;13.24;100.00;101023.53;4982662;28;20217;-68
2023/09/14 00:28:02;;;;;;;2.67;1.40;;;;;;;13.10;100.00;101023.31;4980330;28;20213;-69
2023/09/14 00:30:29;;;;;;;3.03;1.70;;;;;;;13.10;100.00;101034.84;4979492;28;20710;-69
2023/09/14 00:32:55;;;;;;;2.47;1.77;;;;;;;13.07;100.00;101029.47;4984132;28;20314;-69
2023/09/14 00:35:22;;;;;;;2.33;1.53;;;;;;;13.03;100.00;101027.66;4980633;28;20201;-69
2023/09/14 00:37:48;;;;;;;5.33;1.70;;;;;;;13.10;100.00;101028.63;4972996;28;20285;-69
2023/09/14 00:40:15;;;;;;;2.23;1.77;;;;;;;13.01;100.00;101021.44;4978943;28;20233;-68
2023/09/14 00:42:44;;;;;;;2.87;1.93;;;;;;;12.93;100.00;101032.84;4973983;28;20327;-69
2023/09/14 00:45:15;;;;;;;4.27;1.77;;;;;;;12.74;100.00;101029.88;4981822;28;20200;-69
2023/09/14 00:47:45;;;;;;;3.87;1.90;;;;;;;12.63;100.00;101027.94;4975707;28;20204;-69
2023/09/14 00:50:15;;;;;;;4.33;1.70;;;;;;;12.72;100.00;101030.75;4978873;28;20603;-66
2023/09/14 00:52:44;;;;;;;2.77;1.60;;;;;;;12.78;100.00;101029.06;4973739;28;20228;-69
2023/09/14 00:55:12;;;;;;;3.00;1.90;;;;;;;12.71;100.00;101029.84;4981595;28;20196;-69
2023/09/14 00:57:39;;;;;;;4.63;2.20;;;;;;;12.55;100.00;101018.09;4985911;28;20205;-67
2023/09/14 01:00:10;;;;;;;3.13;2.10;;;;;;;12.42;100.00;101024.09;4984758;28;20263;-69
2023/09/14 01:02:39;;;;;;;3.60;2.07;;;;;;;12.27;100.00;101007.00;4980988;28;20668;-70
2023/09/14 01:05:07;;;;;;;2.13;1.70;;;;;;;12.25;100.00;101028.22;4985369;28;20207;-69
2023/09/14 01:07:34;;;;;;;3.00;1.80;;;;;;;12.15;100.00;101027.19;4983368;28;20266;-69
2023/09/14 01:10:04;;;;;;;2.73;1.80;;;;;;;12.08;100.00;101012.03;4987719;28;20286;-70
2023/09/14 01:12:32;;;;;;;2.83;1.80;;;;;;;12.02;100.00;101019.88;4976762;28;20296;-69
2023/09/14 01:15:29;;;;;;;3.73;2.13;;;;;;;12.20;100.00;101021.94;4996115;28;20244;-70
2023/09/14 01:18:14;;;;;;;3.27;2.23;;;;;;;12.36;100.00;101031.06;4991986;28;20233;-70
2023/09/14 01:20:56;;;;;;;3.10;1.73;;;;;;;12.34;100.00;101030.13;4983460;28;20303;-68
2023/09/14 01:23:41;;;;;;;2.80;2.00;;;;;;;12.31;100.00;101030.97;4986909;28;20228;-70
2023/09/14 01:26:09;;;;;;;2.20;1.77;;;;;;;12.20;100.00;101021.94;4988255;28;20203;-71
2023/09/14 01:28:36;;;;;;;4.57;1.97;;;;;;;12.39;100.00;101033.75;4988391;28;20216;-70
2023/09/14 01:31:02;;;;;;;3.50;1.70;;;;;;;12.36;100.00;101031.94;4986086;28;20217;-68
2023/09/14 01:33:29;;;;;;;4.93;2.10;;;;;;;12.22;100.00;101036.16;4986926;28;20224;-70
2023/09/14 01:36:05;;;;;;;3.87;1.90;;;;;;;12.07;100.00;101025.28;4986203;28;20205;-69
2023/09/14 01:38:33;;;;;;;6.23;1.87;;;;;;;12.02;100.00;101030.50;4987333;28;20203;-69
2023/09/14 01:41:01;;;;;;;4.53;2.43;;;;;;;12.08;100.00;101029.72;4981694;28;20208;-69
2023/09/14 01:43:28;;;;;;;3.87;1.90;;;;;;;12.08;100.00;101035.03;5008578;23;20243;-78
2023/09/14 01:45:54;;;;;;;1.77;1.53;;;;;;;11.96;100.00;101030.38;5003461;28;20203;-79
2023/09/14 01:48:22;;;;;;;2.73;1.73;;;;;;;11.92;100.00;101025.88;5002386;28;20207;-78
2023/09/14 01:50:49;;;;;;;2.17;1.70;;;;;;;12.03;100.00;101029.63;5004154;28;20216;-79
2023/09/14 01:53:16;;;;;;;3.77;1.90;;;;;;;12.06;100.00;101032.34;5011402;28;20612;-77
2023/09/14 01:55:42;;;;;;;3.97;2.10;;;;;;;11.95;100.00;101033.88;4996034;28;20218;-78
2023/09/14 01:58:10;;;;;;;4.13;1.80;;;;;;;11.96;100.00;101037.44;5006029;28;20342;-79
2023/09/14 02:00:36;;;;;;;2.33;2.00;;;;;;;12.04;100.00;101034.09;5010397;28;20205;-78
2023/09/14 02:03:03;;;;;;;2.63;1.70;;;;;;;12.10;100.00;101038.59;5001751;28;20210;-78
2023/09/14 02:05:30;;;;;;;4.60;1.90;;;;;;;12.10;100.00;101047.47;4995960;28;20231;-76
2023/09/14 02:07:56;;;;;;;3.80;2.27;;;;;;;12.10;100.00;101043.91;4995590;28;20212;-73
2023/09/14 02:10:23;;;;;;;3.57;1.77;;;;;;;12.00;100.00;101039.28;5000990;28;20222;-73
2023/09/14 02:12:49;;;;;;;3.37;1.83;;;;;;;11.86;100.00;101034.63;5002343;28;20294;-72
2023/09/14 02:15:17;;;;;;;2.40;1.60;;;;;;;11.75;100.00;101041.47;5002634;28;20229;-72
2023/09/14 02:17:44;;;;;;;3.03;1.90;;;;;;;11.74;100.00;101037.03;5006453;28;20223;-72
2023/09/14 02:20:11;;;;;;;2.70;1.87;;;;;;;11.66;100.00;101043.06;4997750;28;20674;-72
2023/09/14 02:22:38;;;;;;;4.60;1.47;;;;;;;11.59;100.00;101048.22;5002251;28;20277;-74
2023/09/14 02:25:05;;;;;;;1.60;1.50;;;;;;;11.58;100.00;101049.06;5000812;28;20219;-72
2023/09/14 02:27:32;;;;;;;3.17;1.70;;;;;;;11.66;100.00;101037.75;5002111;28;20203;-72
2023/09/14 02:29:58;;;;;;;2.23;1.40;;;;;;;11.58;100.00;101049.06;5002155;28;20207;-72
2023/09/14 02:32:25;;;;;;;5.07;2.00;;;;;;;11.50;100.00;101050.69;5004074;28;20204;-71
2023/09/14 02:34:51;;;;;;;3.93;1.80;;;;;;;11.40;100.00;101055.78;5002389;28;20261;-71
2023/09/14 02:37:18;;;;;;;3.53;2.07;;;;;;;11.41;100.00;101053.16;5006980;28;20208;-71
2023/09/14 02:39:44;;;;;;;4.80;1.83;;;;;;;11.42;100.00;101052.31;4997905;28;20698;-71
2023/09/14 02:42:10;;;;;;;2.63;1.73;;;;;;;11.46;100.00;101048.84;5003980;28;20277;-71
2023/09/14 02:44:37;;;;;;;2.70;1.80;;;;;;;11.44;100.00;101055.88;5003882;28;20244;-71
2023/09/14 02:47:04;;;;;;;2.83;1.57;;;;;;;11.45;100.00;101055.00;5004558;28;20203;-72
2023/09/14 02:49:30;;;;;;;2.80;1.90;;;;;;;11.45;100.00;101054.13;5007141;28;20232;-69
2023/09/14 02:51:57;;;;;;;3.97;1.53;;;;;;;11.44;100.00;101053.22;5003806;28;20700;-70
2023/09/14 02:54:23;;;;;;;2.07;1.70;;;;;;;11.25;100.00;101054.63;4999368;28;20227;-69
2023/09/14 02:56:50;;;;;;;4.60;1.60;;;;;;;11.14;100.00;101064.06;4998911;28;20249;-72
2023/09/14 02:59:16;;;;;;;1.87;1.50;;;;;;;11.11;100.00;101063.09;5006896;28;20196;-69
2023/09/14 03:01:44;;;;;;;4.73;1.80;;;;;;;11.07;100.00;101067.44;5002803;28;20214;-69
2023/09/14 03:04:13;;;;;;;3.60;1.80;;;;;;;10.98;100.00;101067.25;5004437;28;20244;-71
2023/09/14 03:06:39;;;;;;;4.03;1.67;;;;;;;10.89;100.00;101069.69;5000555;28;20556;-70
2023/09/14 03:09:06;;;;;;;2.70;1.83;;;;;;;10.77;100.00;101064.09;5004577;28;20205;-71
2023/09/14 03:11:32;;;;;;;1.83;1.50;;;;;;;10.75;100.00;101068.47;5006302;28;20705;-71
2023/09/14 03:13:58;;;;;;;2.63;1.73;;;;;;;10.72;100.00;101064.00;5008479;28;20220;-71
2023/09/14 03:16:25;;;;;;;2.97;1.50;;;;;;;10.65;100.00;101062.94;5003301;28;20223;-71
2023/09/14 03:18:52;;;;;;;5.93;1.50;;;;;;;10.57;100.00;101067.19;5008128;28;20626;-72
2023/09/14 03:21:28;;;;;;;3.20;1.63;;;;;;;10.51;100.00;101067.03;5004968;28;20195;-71
2023/09/14 03:23:55;;;;;;;3.43;1.80;;;;;;;10.45;100.00;101058.06;5001844;28;20232;-71
2023/09/14 03:26:27;;;;;;;2.93;2.00;;;;;;;10.41;100.00;101064.13;5006515;28;20725;-71
2023/09/14 03:28:53;;;;;;;4.27;2.00;;;;;;;10.37;100.00;101068.44;5002824;28;20231;-71
2023/09/14 03:31:20;;;;;;;5.50;1.77;;;;;;;10.28;100.00;101074.38;5004324;28;20237;-71
2023/09/14 03:33:49;;;;;;;2.17;1.60;;;;;;;10.29;100.00;101075.28;4999077;28;20228;-71
2023/09/14 03:36:16;;;;;;;4.03;1.97;;;;;;;10.32;100.00;101076.25;4998373;28;20208;-71
2023/09/14 03:38:42;;;;;;;4.83;1.80;;;;;;;10.33;100.00;101079.81;4998058;28;20219;-69
2023/09/14 03:41:11;;;;;;;1.83;1.50;;;;;;;10.22;100.00;101086.56;4994115;28;20273;-71
2023/09/14 03:43:42;;;;;;;4.33;1.60;;;;;;;10.13;100.00;101079.28;4999896;28;20227;-70
2023/09/14 03:46:10;;;;;;;6.67;2.10;;;;;;;10.08;100.00;101080.00;5005690;28;20204;-70
2023/09/14 03:48:36;;;;;;;3.50;1.90;;;;;;;10.00;100.00;101091.25;5011843;28;20560;-70
2023/09/14 03:51:03;;;;;;;2.47;1.67;;;;;;;9.97;100.00;101080.59;5001151;28;20228;-71
2023/09/14 03:53:30;;;;;;;3.00;1.63;;;;;;;9.93;100.00;101081.38;4997369;28;20232;-70
2023/09/14 03:55:59;;;;;;;2.20;1.50;;;;;;;9.93;100.00;101089.31;5001114;28;20602;-71
2023/09/14 03:58:26;;;;;;;3.47;1.73;;;;;;;9.95;100.00;101086.69;5009112;28;20204;-70
2023/09/14 04:00:53;;;;;;;3.33;1.80;;;;;;;9.97;100.00;101083.25;4999369;28;20203;-70
2023/09/14 04:03:20;;;;;;;3.00;2.10;;;;;;;10.19;100.00;101086.47;4999872;28;20707;-70
2023/09/14 04:05:47;;;;;;;7.20;1.90;;;;;;;10.34;100.00;101085.13;5006554;28;20840;-70
2023/09/14 04:08:13;;;;;;;5.23;1.80;;;;;;;10.33;100.00;101082.44;5002108;28;20200;-71
2023/09/14 04:10:40;;;;;;;4.80;1.97;;;;;;;10.24;100.00;101091.06;5006444;28;20235;-71
2023/09/14 04:13:32;;;;;;;4.07;1.70;;;;;;;10.15;100.00;101096.09;4998160;28;20204;-72
2023/09/14 04:16:01;;;;;;;3.73;1.80;;;;;;;10.19;100.00;101090.00;4997372;28;20647;-70
2023/09/14 04:18:29;;;;;;;3.47;2.00;;;;;;;10.37;100.00;101092.25;5020001;28;20657;-70
2023/09/14 04:20:55;;;;;;;3.90;1.80;;;;;;;10.30;100.00;101092.97;5001821;28;20238;-70
2023/09/14 04:23:22;;;;;;;4.30;2.23;;;;;;;10.32;100.00;101088.59;5013207;28;20215;-71
2023/09/14 04:25:48;;;;;;;4.80;2.23;;;;;;;10.45;100.00;101087.19;4998466;28;20232;-70
2023/09/14 04:28:16;;;;;;;4.07;2.47;;;;;;;10.51;100.00;101085.56;5003966;28;20604;-70
2023/09/14 04:30:52;;;;;;;4.70;2.40;;;;;;;10.46;100.00;101094.25;4998898;28;20324;-71
2023/09/14 04:33:19;;;;;;;6.60;2.30;;;;;;;10.34;100.00;101095.72;4993872;28;20235;-70
2023/09/14 04:35:46;;;;;;;2.73;2.00;;;;;;;10.27;100.00;101099.06;4997849;28;20300;-70
2023/09/14 04:38:12;;;;;;;5.87;2.30;;;;;;;10.25;100.00;101098.13;4996855;28;20218;-70
2023/09/14 04:40:40;;;;;;;3.47;2.30;;;;;;;10.16;100.00;101104.91;5003055;28;20208;-71
2023/09/14 04:43:08;;;;;;;4.10;1.90;;;;;;;10.11;100.00;101103.91;5000931;28;20293;-71
2023/09/14 04:45:35;;;;;;;3.60;2.20;;;;;;;10.24;100.00;101109.59;4992746;28;20212;-70
2023/09/14 04:48:01;;;;;;;4.00;2.27;;;;;;;10.31;100.00;101116.81;4993139;28;20217;-70
2023/09/14 04:50:28;;;;;;;5.23;2.23;;;;;;;10.33;100.00;101112.47;4994755;28;20707;-71
2023/09/14 04:52:55;;;;;;;5.10;2.20;;;;;;;10.25;100.00;101119.31;4995947;28;20211;-70
2023/09/14 04:55:22;;;;;;;4.63;2.53;;;;;;;10.15;100.00;101116.38;5002185;28;20215;-70
2023/09/14 04:57:48;;;;;;;4.80;2.13;;;;;;;10.11;100.00;101123.31;4999145;28;20302;-71
2023/09/14 05:00:15;;;;;;;7.83;2.90;;;;;;;10.07;100.00;101125.84;5002299;28;20560;-70
2023/09/14 05:02:41;;;;;;;5.90;2.40;;;;;;;10.04;100.00;101124.91;4995848;28;20229;-70
2023/09/14 05:05:09;;;;;;;5.30;2.80;;;;;;;9.98;100.00;101127.38;4992919;28;20217;-71
2023/09/14 05:07:35;;;;;;;6.90;2.60;;;;;;;9.97;100.00;101120.28;4996401;28;20214;-70
2023/09/14 05:10:02;;;;;;;5.50;2.43;;;;;;;10.09;100.00;101122.38;4999232;28;20247;-72
2023/09/14 05:12:29;;;;;;;4.73;2.47;;;;;;;10.21;100.00;101117.44;4998058;28;20219;-70
2023/09/14 05:14:55;;;;;;;3.33;2.23;;;;;;;10.39;100.00;101117.03;4993701;28;20228;-70
2023/09/14 05:17:22;;;;;;;7.73;2.50;;;;;;;10.30;100.00;101122.09;4994718;28;20306;-71
2023/09/14 05:19:48;;;;;;;7.20;2.70;;;;;;;10.33;100.00;101123.06;5001573;28;20643;-70
2023/09/14 05:22:15;;;;;;;3.07;2.30;;;;;;;10.38;100.00;101124.91;4996223;28;20200;-70
2023/09/14 05:24:41;;;;;;;6.57;2.77;;;;;;;10.45;100.00;101126.91;5002474;28;20238;-71
2023/09/14 05:27:09;;;;;;;3.83;2.53;;;;;;;10.52;100.00;101126.19;5003365;28;20259;-70
2023/09/14 05:29:36;;;;;;;7.13;2.80;;;;;;;10.53;100.00;101126.22;5004456;28;20821;-70
2023/09/14 05:32:02;;;;;;;8.90;3.03;;;;;;;10.46;100.00;101126.94;4997912;28;20239;-70
2023/09/14 05:34:29;;;;;;;6.07;2.80;;;;;;;10.39;100.00;101124.97;4994643;28;20235;-71
2023/09/14 05:36:56;;;;;;;5.97;2.87;;;;;;;10.40;100.00;101126.75;4996237;28;20508;-72
2023/09/14 05:39:22;;;;;;;6.67;2.93;;;;;;;10.56;100.00;101126.31;5000142;28;20201;-71
2023/09/14 05:41:50;;;;;;;6.87;3.00;;;;;;;10.63;100.00;101128.25;4994990;28;20310;-72
2023/09/14 05:44:17;;;;;;;4.97;2.77;;;;;;;10.68;100.00;101129.25;5005213;28;20314;-70
2023/09/14 05:46:43;;;;;;;12.10;3.30;;;;;;;10.80;100.00;101131.28;4996595;28;20210;-71
2023/09/14 05:49:10;;;;;;;10.43;3.00;;;;;;;10.94;100.00;101131.66;4990829;28;20216;-71
2023/09/14 05:51:37;;;;;;;5.83;3.00;;;;;;;11.02;100.00;101142.44;4995378;28;20221;-70
2023/09/14 05:54:03;;;;;;;5.33;3.10;;;;;;;10.99;100.00;101138.84;4998185;28;20239;-70
2023/09/14 05:56:31;;;;;;;6.67;3.27;;;;;;;11.08;100.00;101137.25;5005431;28;20747;-70
2023/09/14 05:58:58;;;;;;;6.43;3.20;;;;;;;11.08;100.00;101148.75;5001167;28;20295;-70
2023/09/14 06:01:24;;;;;;;5.30;3.13;;;;;;;11.09;100.00;101147.00;5012156;28;20211;-70
2023/09/14 06:03:51;;;;;;;6.57;3.10;;;;;;;11.20;100.00;101150.78;4993392;28;20761;-71
2023/09/14 06:06:17;;;;;;;6.20;3.20;;;;;;;11.27;100.00;101145.69;4994280;28;20216;-71
2023/09/14 06:08:43;;;;;;;7.60;3.30;;;;;;;11.45;100.00;101149.59;5003407;28;20202;-70
2023/09/14 06:11:10;;;;;;;7.27;3.57;;;;;;;11.60;100.00;101155.22;5002107;28;20287;-71
2023/09/14 06:13:36;;;;;;;8.63;3.30;;;;;;;11.67;100.00;101151.88;4999098;28;20224;-71
2023/09/14 06:16:03;;;;;;;6.93;3.47;;;;;;;11.73;100.00;101140.47;4999024;28;20206;-71
2023/09/14 06:18:30;;;;;;;7.90;3.23;;;;;;;11.74;100.00;101140.50;5003972;28;20291;-71
2023/09/14 06:20:56;;;;;;;7.07;3.20;;;;;;;11.76;100.00;101153.81;5003822;28;20601;-71
2023/09/14 06:23:22;;;;;;;7.33;3.33;;;;;;;11.84;100.00;101157.53;4999063;28;20641;-70
2023/09/14 06:25:52;;;;;;;9.20;3.80;;;;;;;11.93;100.00;101155.06;5000778;28;20204;-71
2023/09/14 06:28:19;;;;;;;5.77;3.53;;;;;;;12.04;100.00;101152.66;4999566;28;20205;-71
2023/09/14 06:30:45;;;;;;;7.60;3.60;;;;;;;12.09;100.00;101149.22;4996713;28;20688;-72
2023/09/14 06:33:12;;;;;;;5.67;3.77;;;;;;;12.20;100.00;101157.38;4995089;28;20208;-71
2023/09/14 06:35:38;;;;;;;6.97;3.47;;;;;;;12.29;100.00;101146.94;5002711;28;20302;-71
2023/09/14 06:38:09;;;;;;;8.87;3.70;;;;;;;12.38;100.00;101152.41;4996655;28;20234;-71
2023/09/14 06:40:35;;;;;;;6.60;3.53;;;;;;;12.45;100.00;101151.66;4994326;28;20730;-73
2023/09/14 06:43:02;;;;;;;5.67;3.20;;;;;;;12.73;100.00;101144.16;5003815;28;20196;-73
2023/09/14 06:45:28;;;;;;;5.33;3.07;;;;;;;12.76;100.00;101150.41;5000874;28;20208;-77
2023/09/14 06:47:55;;;;;;;6.50;3.23;;;;;;;12.85;100.00;101145.28;4995947;28;20682;-80
2023/09/14 06:50:21;;;;;;;7.07;3.67;;;;;;;12.94;100.00;101143.63;4993264;28;20200;-79
2023/09/14 06:52:48;;;;;;;6.63;3.47;;;;;;;13.07;100.00;101150.91;4993955;28;20217;-78
2023/09/14 06:55:14;;;;;;;5.03;3.20;;;;;;;13.20;100.00;101146.69;4996479;28;20221;-80
2023/09/14 06:57:41;;;;;;;6.33;2.90;;;;;;;13.32;100.00;101149.56;4998430;28;20303;-81
2023/09/14 07:00:16;;;;;;;5.33;2.80;;;;;;;13.48;100.00;101152.44;5003045;28;20672;-78
2023/09/14 07:02:43;;;;;;;6.00;2.70;;;;;;;13.56;100.00;101151.66;4996927;28;20202;-79
2023/09/14 07:05:10;;;;;;;7.43;3.10;;;;;;;13.62;100.00;101151.75;4995432;28;20240;-75
2023/09/14 07:07:40;;;;;;;6.63;2.90;;;;;;;13.65;100.00;101158.00;5005938;28;20220;-75
2023/09/14 07:10:08;;;;;;;5.03;2.93;;;;;;;13.74;100.00;101154.56;4999951;28;20215;-75
2023/09/14 07:12:35;;;;;;;5.70;2.87;;;;;;;13.87;100.00;101159.16;4994347;28;20722;-73
2023/09/14 07:15:03;;;;;;;4.47;3.00;;;;;;;14.15;100.00;101160.38;4999103;28;20251;-74
2023/09/14 07:17:29;;;;;;;5.93;2.77;;;;;;;14.61;100.00;101161.78;4998987;28;20200;-74
2023/09/14 07:19:56;;;;;;;6.37;2.57;;;;;;;14.74;100.00;101163.66;4995913;28;20610;-72
2023/09/14 07:22:22;;;;;;;5.93;2.40;;;;;;;15.22;100.00;101170.31;4996210;28;20658;-73
2023/09/14 07:24:49;;;;;;;4.43;2.80;;;;;;;15.65;100.00;101166.16;4999658;28;20225;-73
2023/09/14 07:27:16;;;;;;;4.07;2.73;;;;;;;15.78;100.00;101164.41;4996698;28;20263;-72
2023/09/14 07:29:44;;;;;;;6.40;2.90;;;;;;;15.91;100.00;101163.56;4996851;28;20205;-72
2023/09/14 07:32:10;;;;;;;5.23;2.60;;;;;;;15.97;100.00;101171.59;4999112;28;20716;-72
2023/09/14 07:34:36;;;;;;;6.53;2.67;;;;;;;16.02;100.00;101160.97;4996347;28;20255;-72
2023/09/14 07:37:03;;;;;;;7.30;2.93;;;;;;;15.84;100.00;101172.44;4996929;28;20212;-73
2023/09/14 07:39:29;;;;;;;6.87;2.87;;;;;;;15.92;100.00;101168.03;4998167;28;20228;-71
2023/09/14 07:41:56;;;;;;;4.63;2.80;;;;;;;16.01;100.00;101158.25;4994613;28;20204;-73
2023/09/14 07:44:23;;;;;;;5.23;2.57;;;;;;;16.12;100.00;101172.56;5000654;28;20298;-72
2023/09/14 07:46:49;;;;;;;6.83;2.50;;;;;;;16.16;100.00;101172.59;5003779;28;20201;-71
2023/09/14 07:49:16;;;;;;;10.47;3.03;;;;;;;16.24;100.00;101172.59;4999647;28;20295;-72
2023/09/14 07:51:42;;;;;;;7.17;3.43;;;;;;;16.28;100.00;101179.72;4997099;28;20328;-71
2023/09/14 07:54:09;;;;;;;5.47;3.47;;;;;;;16.30;100.00;101175.28;4992415;28;20224;-72
2023/09/14 07:56:35;;;;;;;9.63;3.30;;;;;;;16.38;100.00;101175.28;4993113;28;20200;-70
2023/09/14 07:59:01;;;;;;;7.93;3.20;;;;;;;16.41;100.00;101186.00;5000464;28;20200;-71
2023/09/14 08:01:28;;;;;;;8.50;2.83;;;;;;;16.43;100.00;101181.56;5002647;28;20460;-71
2023/09/14 08:03:54;;;;;;;7.43;3.03;;;;;;;16.44;100.00;101183.34;5000252;28;20266;-70
2023/09/14 08:06:23;;;;;;;7.30;2.93;;;;;;;16.45;100.00;101182.47;5001749;28;20612;-70
2023/09/14 08:08:50;;;;;;;4.87;2.63;;;;;;;16.49;100.00;101182.47;5005859;28;20200;-70
2023/09/14 08:11:17;;;;;;;6.57;2.40;;;;;;;16.51;100.00;101172.66;5007827;28;20211;-70
2023/09/14 08:13:43;;;;;;;8.80;2.73;;;;;;;16.64;100.00;101172.69;5007950;28;20220;-70
2023/09/14 08:16:10;;;;;;;7.07;2.73;;;;;;;16.73;100.00;101188.75;4998403;28;20229;-70
2023/09/14 08:18:36;;;;;;;9.33;3.33;;;;;;;16.78;100.00;101187.88;5002496;28;20216;-69
2023/09/14 08:21:03;;;;;;;5.83;3.17;;;;;;;16.79;100.00;101175.38;4998578;28;20222;-69
2023/09/14 08:23:29;;;;;;;10.63;3.00;;;;;;;16.85;100.00;101187.00;5001300;28;20228;-69
2023/09/14 08:25:55;;;;;;;8.17;3.13;;;;;;;16.81;100.00;101187.91;4999727;28;20204;-69
2023/09/14 08:28:22;;;;;;;12.73;2.80;;;;;;;16.87;100.00;101184.34;5001895;28;20220;-69
2023/09/14 08:30:48;;;;;;;8.70;2.40;;;;;;;16.87;100.00;101189.69;4997792;28;20620;-70
2023/09/14 08:33:18;;;;;;;13.60;3.07;;;;;;;16.85;100.00;101187.00;4990360;28;20212;-71
2023/09/14 08:35:46;;;;;;;5.03;2.60;;;;;;;17.01;100.00;101195.94;5004265;28;20302;-70
2023/09/14 08:38:13;;;;;;;5.80;2.80;;;;;;;17.11;100.00;101189.66;4995092;28;20200;-70
2023/09/14 08:40:41;;;;;;;8.47;3.40;;;;;;;17.32;100.00;101190.56;5002846;28;20219;-71
2023/09/14 08:43:12;;;;;;;7.20;3.10;;;;;;;17.55;100.00;101188.72;4994226;28;20246;-70
2023/09/14 08:45:39;;;;;;;8.93;3.13;;;;;;;17.82;100.00;101185.09;5003129;28;20226;-70
2023/09/14 08:48:06;;;;;;;8.60;2.80;;;;;;;18.01;100.00;101188.59;5003168;28;20223;-71
2023/09/14 08:50:34;;;;;;;10.60;3.10;;;;;;;18.19;100.00;101184.94;5000532;28;20200;-72
2023/09/14 08:53:01;;;;;;;5.70;1.80;;;;;;;18.20;100.00;101182.25;4995872;28;20231;-72
2023/09/14 08:55:40;;;;;;;3.60;1.97;;;;;;;18.32;100.00;101181.28;5003822;28;20196;-72
2023/09/14 08:58:07;;;;;;;3.03;1.73;;;;;;;18.28;100.00;101177.75;4993928;28;20208;-71
2023/09/14 09:00:35;;;;;;;4.17;1.83;;;;;;;18.32;100.00;101174.13;4991684;28;20197;-71
2023/09/14 09:03:01;;;;;;;6.10;2.10;;;;;;;18.28;100.00;101169.69;4993918;28;20204;-71
2023/09/14 09:05:28;;;;;;;3.33;1.83;;;;;;;18.47;100.00;101175.84;4982731;28;20211;-72
2023/09/14 09:07:55;;;;;;;3.17;1.80;;;;;;;18.68;100.00;101167.69;4979919;28;20603;-72
2023/09/14 09:10:24;;;;;;;6.80;1.70;;;;;;;18.87;100.00;101175.59;4972943;28;20213;-70
2023/09/14 09:12:52;;;;;;;5.07;1.90;;;;;;;19.05;94.76;101176.34;4986297;28;20220;-72
2023/09/14 09:15:21;;;;;;;5.40;1.75;;;;;;;19.18;92.51;101170.84;4999408;28;20758;-70
2023/09/14 09:17:47;;;;;;;2.58;1.55;;;;;;;19.22;84.94;101176.19;4996281;28;20208;-71
2023/09/14 09:20:24;;;;;;;5.23;1.63;;;;;;;19.35;83.45;101182.34;5000843;28;20292;-72
2023/09/14 09:22:55;;;;;;;4.75;1.55;;;;;;;19.35;85.70;101182.34;4993941;28;20676;-72
2023/09/14 09:25:22;;;;;;;1.97;1.40;;;;;;;19.35;83.54;101176.97;4995448;28;20240;-72
2023/09/14 09:28:00;;;;;;;4.65;2.03;;;;;;;19.50;88.95;101168.72;5016236;28;20703;-71
2023/09/14 09:30:34;;;;;;;5.93;2.33;;;;;;;19.45;88.75;101175.06;5004331;28;20299;-71
2023/09/14 09:33:03;;;;;;;5.93;1.75;;;;;;;19.69;83.19;101169.47;4999811;28;20223;-74
2023/09/14 09:35:31;;;;;;;8.77;2.25;;;;;;;19.82;84.47;101164.81;5001124;28;20556;-72
2023/09/14 09:37:58;;;;;;;4.03;1.80;;;;;;;19.70;83.16;101176.63;5001865;28;20299;-72
2023/09/14 09:40:27;;;;;;;7.15;2.40;;;;;;;20.05;82.99;101169.94;5012343;28;20263;-71
2023/09/14 09:42:55;;;;;;;4.05;2.05;;;;;;;20.59;79.14;101168.28;5000387;28;20200;-71
2023/09/14 09:45:25;;;;;;;3.75;1.67;;;;;;;21.05;78.72;101165.72;4998634;28;20271;-71
2023/09/14 09:47:53;;;;;;;4.70;2.15;;;;;;;21.82;73.57;101166.09;5002433;28;20201;-71
2023/09/14 09:50:22;;;;;;;6.45;2.00;;;;;;;22.29;65.81;101158.84;4995425;28;20201;-71
2023/09/14 09:52:49;;;;;;;13.95;5.32;;;;;;;22.72;63.63;101156.00;5010997;28;20458;-72
2023/09/14 09:55:24;;;;;;;4.35;2.53;;;;;;;23.16;62.93;101154.03;4993612;28;20233;-70
2023/09/14 09:58:01;;;;;;;5.35;2.35;;;;;;;23.58;59.57;101154.72;4996447;28;20739;-70
2023/09/14 10:00:33;;;;;;;7.20;1.80;;;;;;;23.81;56.61;101145.09;4999752;28;20200;-71
2023/09/14 10:03:01;;;;;;;3.53;1.50;;;;;;;23.95;57.25;101145.53;5002262;28;20207;-71
2023/09/14 10:05:28;;;;;;;3.25;1.80;;;;;;;23.71;56.00;101144.47;5004880;28;20574;-71
2023/09/14 10:07:58;;;;;;;5.05;2.13;;;;;;;23.50;56.46;101143.19;4994574;28;20207;-71
2023/09/14 10:10:26;;;;;;;4.43;2.05;;;;;;;23.15;57.57;101149.56;4997571;28;20243;-72
2023/09/14 10:12:54;;;;;;;5.65;2.30;;;;;;;22.76;58.33;101146.91;4995196;28;20228;-71
2023/09/14 10:15:21;;;;;;;6.10;1.77;;;;;;;22.57;59.65;101145.59;4999692;28;20217;-70
2023/09/14 10:17:52;;;;;;;6.57;2.05;;;;;;;22.19;60.18;101141.09;4995153;28;20291;-71
2023/09/14 10:20:19;;;;;;;4.05;1.70;;;;;;;21.73;60.65;101142.03;4994289;28;20673;-70
2023/09/14 10:22:47;;;;;;;5.30;1.60;;;;;;;21.26;62.13;101145.66;4999063;28;20545;-71
2023/09/14 10:25:15;;;;;;;3.10;1.58;;;;;;;21.37;61.44;101142.75;4996382;28;20492;-71
2023/09/14 10:27:43;;;;;;;5.78;1.88;;;;;;;21.45;61.66;101149.78;4999187;28;20209;-71
2023/09/14 10:30:19;;;;;;;3.47;2.10;;;;;;;21.66;61.46;101139.50;4998891;28;20291;-69
2023/09/14 10:32:48;;;;;;;4.00;1.88;;;;;;;21.81;61.06;101142.75;5000054;28;20794;-70
2023/09/14 10:35:17;;;;;;;3.35;1.90;;;;;;;21.65;60.08;101143.13;4997828;28;20220;-71
2023/09/14 10:37:45;;;;;;;3.15;1.88;;;;;;;21.43;61.23;101137.25;4994436;28;20196;-70
2023/09/14 10:40:13;;;;;;;4.72;1.67;;;;;;;21.79;59.57;101139.22;4998932;28;20201;-70
2023/09/14 10:42:43;;;;;;;5.68;1.63;;;;;;;22.16;58.57;101136.63;5001059;28;20563;-70
2023/09/14 10:45:12;;;;;;;3.22;1.70;;;;;;;22.28;57.77;101131.88;4999994;28;20223;-69
2023/09/14 10:47:44;;;;;;;4.45;1.63;;;;;;;22.42;57.60;101132.47;4996583;28;20211;-70
2023/09/14 10:50:12;;;;;;;2.33;1.48;;;;;;;22.47;56.61;101136.84;4994489;28;20208;-71
2023/09/14 10:52:40;;;;;;;2.80;1.83;;;;;;;22.24;56.50;101136.47;4995837;28;20231;-70
2023/09/14 10:55:10;;;;;;;3.00;1.90;;;;;;;21.98;58.46;101125.31;4994102;28;20250;-71
2023/09/14 10:57:41;;;;;;;4.25;1.70;;;;;;;22.00;58.18;101129.75;4999260;28;20685;-71
2023/09/14 11:00:36;;;;;;;3.90;1.40;;;;;;;21.69;58.08;101125.94;5000148;28;20209;-71
2023/09/14 11:03:22;;;;;;;3.83;1.80;;;;;;;21.51;59.63;101125.38;4999846;28;20225;-71
2023/09/14 11:05:52;;;;;;;2.65;1.60;;;;;;;21.48;59.55;101113.78;5003643;28;20204;-70
2023/09/14 11:08:27;;;;;;;6.10;1.80;;;;;;;21.60;61.21;101116.22;4996110;28;20228;-71
2023/09/14 11:10:59;;;;;;;2.67;1.60;;;;;;;21.75;60.24;101106.94;4999690;28;20227;-71
2023/09/14 11:13:35;;;;;;;6.93;1.65;;;;;;;21.87;61.21;101104.88;4998175;28;20331;-71
2023/09/14 11:16:13;;;;;;;2.15;1.45;;;;;;;22.34;59.17;101102.94;4997219;28;20230;-71
2023/09/14 11:18:44;;;;;;;2.83;1.40;;;;;;;22.67;55.48;101103.94;5003282;28;20208;-71
2023/09/14 11:21:34;;;;;;;2.85;1.33;;;;;;;23.23;54.77;101101.63;5014457;28;20228;-71
2023/09/14 11:24:07;;;;;;;5.35;1.20;;;;;;;23.63;52.64;101095.13;5002917;28;20755;-71